Pittston, Pennsylvania
Current Conditions -  °F | °C
As of 5:54 AM on Friday 24 Oct 2014 (Local Time) from KAVP Reporting Station
Overcast Overcast  
Wind Chill: 51°   Ceiling: 2200
Heat Index: 51°   Visibility: 10mi
Dew Point: 42°   Wind: 12mph
Humidity: 71%   Direction: 330°NNW
Pressure: 29.89"   Gusts: NA
Location:  41.32°N, 75.79°W
Report Text: KAVP 240954Z AUTO 33010KT 10SM OVC022 11/06 A2989 RMK AO2 SLP121 T01060056
Loading
Personal Weather Stations






























Interactive Weather Map
Tropical Storm Tracking
New forecast layout! Learn more

10-Day Weather Forecast

Advertisements
Track Severe Weather on mobile